Koun Maru — JK5556 — position and weather

sailwx.info

Track history (hours):
 
Tides and Currents Weather Stations Pressure Air Temp Water Temp Dewpoint Dewpoint Depression Visibility Wind Speed Wind Dir Waves Ship Positions

Koun Maru

Last reported at 2014-Aug-21 08:33 UTC. Time now 2014-Aug-22 03:55 UTC.
Position N 34°36' E 135°07'.

Length 40 m.

Type: Tanker. MMSI: 431401871.

Date/timePositionNaut miles runAvg speedWind from/ knotsBaromVisibWave heightAir tempDewpointWater temp
2014-Aug-21 08:33N 34°36' E 135°07'16 6.8
2014-Aug-21 06:16N 34°33' E 135°26'6 0.2
2014-Aug-20 01:33N 34°39' E 135°24'8 8.2
2014-Aug-20 00:33N 34°42' E 135°15'0 0.0
2014-Aug-19 23:33N 34°42' E 135°15'5 4.8
2014-Aug-19 22:32N 34°41' E 135°20'6 0.4
2014-Aug-19 06:17N 34°39' E 135°27'6 1.3
2014-Aug-19 01:31N 34°36' E 135°20'7 7.3
2014-Aug-19 00:32N 34°40' E 135°13'0 0.0
2014-Aug-18 23:33N 34°40' E 135°13'2 1.9
2014-Aug-18 22:33N 34°40' E 135°16'9 0.7
2014-Aug-18 08:12N 34°39' E 135°27'9 3.5
2014-Aug-18 05:32N 34°31' E 135°20'7 0.2
2014-Aug-17 02:26N 34°36' E 135°25'  
2014-Aug-14 09:17N 34°39' E 135°25'810.4
2014-Aug-14 08:33N 34°36' E 135°16'1211.6
2014-Aug-14 07:31N 34°37' E 135°02'  
Track history (hours):
 
Tides and Currents Weather Stations Pressure Air Temp Water Temp Dewpoint Dewpoint Depression Visibility Wind Speed Wind Dir Waves Ship Positions

Koun Maru

Last reported at 2014-Aug-21 08:33 UTC. Time now 2014-Aug-22 03:55 UTC.
Position N 34°36' E 135°07'.

Length 40 m.

Type: Tanker. MMSI: 431401871.

Date/timePositionNaut miles runAvg speedWind from/ knotsBaromVisibWave heightAir tempDewpointWater temp
2014-Aug-21 08:33N 34°36' E 135°07'16 6.8
2014-Aug-21 06:16N 34°33' E 135°26'6 0.2
2014-Aug-20 01:33N 34°39' E 135°24'8 8.2
2014-Aug-20 00:33N 34°42' E 135°15'0 0.0
2014-Aug-19 23:33N 34°42' E 135°15'5 4.8
2014-Aug-19 22:32N 34°41' E 135°20'6 0.4
2014-Aug-19 06:17N 34°39' E 135°27'6 1.3
2014-Aug-19 01:31N 34°36' E 135°20'7 7.3
2014-Aug-19 00:32N 34°40' E 135°13'0 0.0
2014-Aug-18 23:33N 34°40' E 135°13'2 1.9
2014-Aug-18 22:33N 34°40' E 135°16'9 0.7
2014-Aug-18 08:12N 34°39' E 135°27'9 3.5
2014-Aug-18 05:32N 34°31' E 135°20'7 0.2
2014-Aug-17 02:26N 34°36' E 135°25'  
2014-Aug-14 09:17N 34°39' E 135°25'810.4
2014-Aug-14 08:33N 34°36' E 135°16'1211.6
2014-Aug-14 07:31N 34°37' E 135°02'  

Dump ship's entire track history